createdAt,value
2023-03-04T00:02:17.130Z,-73
2023-03-04T00:04:44.893Z,-74
2023-03-04T00:07:16.660Z,-73
2023-03-04T00:09:44.439Z,-74
2023-03-04T00:12:12.251Z,-74
2023-03-04T00:14:40.077Z,-75
2023-03-04T00:17:07.967Z,-75
2023-03-04T00:19:35.932Z,-75
2023-03-04T00:22:04.196Z,-76
2023-03-04T00:24:32.175Z,-74
2023-03-04T00:27:00.247Z,-75
2023-03-04T00:29:29.281Z,-75
2023-03-04T00:31:57.179Z,-75
2023-03-04T00:34:25.098Z,-75
2023-03-04T00:36:52.914Z,-75
2023-03-04T00:39:20.625Z,-75
2023-03-04T00:41:48.413Z,-76
2023-03-04T00:44:16.413Z,-76
2023-03-04T00:46:44.167Z,-75
2023-03-04T00:49:12.150Z,-75
2023-03-04T00:51:39.936Z,-75
2023-03-04T00:54:07.736Z,-75
2023-03-04T00:56:35.561Z,-75
2023-03-04T00:59:03.372Z,-74
2023-03-04T01:01:31.341Z,-75
2023-03-04T01:03:59.131Z,-75
2023-03-04T01:06:26.962Z,-75
2023-03-04T01:08:54.817Z,-76
2023-03-04T01:11:22.584Z,-75
2023-03-04T01:13:50.406Z,-75
2023-03-04T01:16:18.169Z,-75
2023-03-04T01:18:47.584Z,-74
2023-03-04T01:21:15.369Z,-75
2023-03-04T01:23:43.283Z,-75
2023-03-04T01:26:11.056Z,-75
2023-03-04T01:28:38.823Z,-75
2023-03-04T01:31:06.581Z,-75
2023-03-04T01:33:34.365Z,-75
2023-03-04T01:36:02.082Z,-76
2023-03-04T01:38:29.836Z,-76
2023-03-04T01:40:57.695Z,-75
2023-03-04T01:43:25.607Z,-76
2023-03-04T01:45:53.448Z,-75
2023-03-04T01:48:21.310Z,-75
2023-03-04T01:50:49.063Z,-74
2023-03-04T01:53:17.221Z,-75
2023-03-04T01:55:44.962Z,-75
2023-03-04T01:58:12.841Z,-75
2023-03-04T02:00:40.648Z,-75
2023-03-04T02:03:08.644Z,-74
2023-03-04T02:05:36.410Z,-75
2023-03-04T02:08:04.238Z,-75
2023-03-04T02:10:33.616Z,-75
2023-03-04T02:13:01.453Z,-76
2023-03-04T02:15:29.447Z,-75
2023-03-04T02:17:57.239Z,-76
2023-03-04T02:20:25.009Z,-76
2023-03-04T02:22:52.788Z,-76
2023-03-04T02:25:32.404Z,-75
2023-03-04T02:28:00.205Z,-76
2023-03-04T02:30:27.943Z,-75
2023-03-04T02:32:55.775Z,-75
2023-03-04T02:35:23.572Z,-75
2023-03-04T02:37:51.576Z,-75
2023-03-04T02:40:19.325Z,-76
2023-03-04T02:42:47.312Z,-75
2023-03-04T02:45:15.082Z,-75
2023-03-04T02:47:42.900Z,-76
2023-03-04T02:50:10.711Z,-75
2023-03-04T02:52:38.444Z,-75
2023-03-04T02:55:06.317Z,-75
2023-03-04T02:57:34.060Z,-75
2023-03-04T03:00:01.929Z,-75
2023-03-04T03:02:29.771Z,-75
2023-03-04T03:04:57.685Z,-76
2023-03-04T03:07:25.600Z,-76
2023-03-04T03:09:53.380Z,-76
2023-03-04T03:12:21.240Z,-76
2023-03-04T03:14:49.029Z,-76
2023-03-04T03:17:16.736Z,-75
2023-03-04T03:19:44.723Z,-75
2023-03-04T03:22:12.506Z,-75
2023-03-04T03:24:40.255Z,-76
2023-03-04T03:27:08.165Z,-75
2023-03-04T03:29:36.001Z,-76
2023-03-04T03:32:03.930Z,-76
2023-03-04T03:34:31.708Z,-76
2023-03-04T03:36:59.475Z,-76
2023-03-04T03:39:27.225Z,-76
2023-03-04T03:41:54.973Z,-75
2023-03-04T03:44:22.796Z,-76
2023-03-04T03:46:50.748Z,-76
2023-03-04T03:49:18.507Z,-75
2023-03-04T03:51:46.375Z,-76
2023-03-04T03:54:14.166Z,-76
2023-03-04T03:56:42.015Z,-75
2023-03-04T03:59:09.833Z,-75
2023-03-04T04:01:37.881Z,-75
2023-03-04T04:04:05.972Z,-75
2023-03-04T04:06:33.753Z,-76
2023-03-04T04:09:01.516Z,-76
2023-03-04T04:11:29.271Z,-76
2023-03-04T04:13:57.078Z,-76
2023-03-04T04:16:24.865Z,-76
2023-03-04T04:18:52.682Z,-76
2023-03-04T04:21:21.066Z,-75
2023-03-04T04:23:48.863Z,-76
2023-03-04T04:26:16.797Z,-75
2023-03-04T04:28:44.587Z,-75
2023-03-04T04:31:12.429Z,-75
2023-03-04T04:35:10.238Z,-76
2023-03-04T04:37:38.188Z,-76
2023-03-04T04:40:06.387Z,-76
2023-03-04T04:42:34.206Z,-76
2023-03-04T04:45:02.452Z,-76
2023-03-04T04:47:30.218Z,-76
2023-03-04T04:49:58.121Z,-76
2023-03-04T04:53:18.715Z,-76
2023-03-04T04:55:46.534Z,-76
2023-03-04T04:58:14.264Z,-75
2023-03-04T05:00:42.106Z,-76
2023-03-04T05:03:09.978Z,-76
2023-03-04T05:05:37.746Z,-75
2023-03-04T05:08:05.442Z,-76
2023-03-04T05:10:33.165Z,-76
2023-03-04T05:13:00.953Z,-75
2023-03-04T05:15:32.013Z,-76
2023-03-04T05:17:59.793Z,-76
2023-03-04T05:22:34.924Z,-76
2023-03-04T05:26:35.341Z,-76
2023-03-04T05:29:03.240Z,-76
2023-03-04T05:31:31.379Z,-76
2023-03-04T05:34:00.564Z,-76
2023-03-04T05:36:35.875Z,-76
2023-03-04T05:39:03.579Z,-76
2023-03-04T05:41:31.351Z,-76
2023-03-04T05:43:59.194Z,-76
2023-03-04T05:46:27.050Z,-76
2023-03-04T05:48:54.842Z,-76
2023-03-04T05:53:51.539Z,-76
2023-03-04T05:56:19.349Z,-75
2023-03-04T05:58:47.578Z,-75
2023-03-04T06:01:15.591Z,-76
2023-03-04T06:05:05.886Z,-76
2023-03-04T06:07:33.656Z,-76
2023-03-04T06:10:01.651Z,-76
2023-03-04T06:12:29.869Z,-76
2023-03-04T06:14:57.697Z,-76
2023-03-04T06:17:25.461Z,-76
2023-03-04T06:19:53.206Z,-76
2023-03-04T06:22:20.971Z,-76
2023-03-04T06:24:48.808Z,-78
2023-03-04T06:27:16.891Z,-74
2023-03-04T06:29:44.633Z,-74
2023-03-04T06:32:12.442Z,-74
2023-03-04T06:34:40.195Z,-74
2023-03-04T06:37:08.015Z,-74
2023-03-04T06:39:35.809Z,-74
2023-03-04T06:42:03.779Z,-75
2023-03-04T06:44:31.641Z,-78
2023-03-04T06:46:59.950Z,-76
2023-03-04T06:49:28.196Z,-77
2023-03-04T06:51:56.054Z,-76
2023-03-04T06:54:23.790Z,-77
2023-03-04T06:56:51.606Z,-74
2023-03-04T06:59:19.500Z,-74
2023-03-04T07:01:47.441Z,-74
2023-03-04T07:04:15.598Z,-75
2023-03-04T07:06:43.661Z,-78
2023-03-04T07:09:11.486Z,-77
2023-03-04T07:11:39.305Z,-77
2023-03-04T07:14:07.117Z,-76
2023-03-04T07:20:51.207Z,-76
2023-03-04T07:23:19.334Z,-76
2023-03-04T07:25:47.091Z,-76
2023-03-04T07:28:15.070Z,-74
2023-03-04T07:30:42.899Z,-74
2023-03-04T07:33:10.700Z,-74
2023-03-04T07:35:38.680Z,-75
2023-03-04T07:38:06.560Z,-74
2023-03-04T07:40:34.297Z,-74
2023-03-04T07:43:02.140Z,-74
2023-03-04T07:47:21.057Z,-80
2023-03-04T07:49:49.935Z,-80
2023-03-04T07:52:17.792Z,-80
2023-03-04T07:54:45.486Z,-80
2023-03-04T07:57:13.212Z,-80
2023-03-04T07:59:40.970Z,-80
2023-03-04T08:02:09.848Z,-80
2023-03-04T08:04:37.700Z,-80
2023-03-04T08:07:05.407Z,-80
2023-03-04T08:09:33.144Z,-79
2023-03-04T08:12:00.849Z,-80
2023-03-04T08:14:28.702Z,-80
2023-03-04T08:16:56.424Z,-80
2023-03-04T08:19:26.096Z,-80
2023-03-04T08:21:53.903Z,-80
2023-03-04T08:24:21.621Z,-80
2023-03-04T08:26:49.799Z,-80
2023-03-04T08:29:17.716Z,-80
2023-03-04T08:31:48.682Z,-80
2023-03-04T08:35:22.793Z,-75
2023-03-04T08:37:50.801Z,-74
2023-03-04T08:40:18.793Z,-77
2023-03-04T08:42:46.544Z,-74
2023-03-04T08:45:14.516Z,-76
2023-03-04T08:47:42.487Z,-75
2023-03-04T08:50:10.387Z,-75
2023-03-04T08:52:38.163Z,-79
2023-03-04T08:55:38.668Z,-79
2023-03-04T08:58:06.417Z,-79
2023-03-04T09:00:34.185Z,-79
2023-03-04T09:03:02.052Z,-79
2023-03-04T09:05:30.181Z,-79
2023-03-04T09:07:58.035Z,-79
2023-03-04T09:10:25.738Z,-79
2023-03-04T09:12:53.708Z,-79
2023-03-04T09:15:21.422Z,-79
2023-03-04T09:17:49.163Z,-78
2023-03-04T09:20:17.115Z,-77
2023-03-04T09:22:44.862Z,-78
2023-03-04T09:25:13.264Z,-79
2023-03-04T09:27:41.030Z,-78
2023-03-04T09:30:08.812Z,-78
2023-03-04T09:32:36.841Z,-79
2023-03-04T09:35:04.657Z,-79
2023-03-04T09:37:32.504Z,-79
2023-03-04T09:40:00.239Z,-78
2023-03-04T09:42:29.425Z,-78
2023-03-04T09:44:57.329Z,-79
2023-03-04T09:47:25.131Z,-79
2023-03-04T09:49:53.037Z,-78
2023-03-04T09:52:20.880Z,-79
2023-03-04T09:56:09.053Z,-76
2023-03-04T09:58:36.777Z,-76
2023-03-04T10:01:05.442Z,-76
2023-03-04T10:03:33.336Z,-76
2023-03-04T10:06:01.212Z,-76
2023-03-04T10:08:29.254Z,-76
2023-03-04T10:10:57.167Z,-77
2023-03-04T10:13:25.074Z,-74
2023-03-04T10:15:53.784Z,-74
2023-03-04T10:18:23.077Z,-75
2023-03-04T10:20:58.275Z,-76
2023-03-04T10:23:26.067Z,-74
2023-03-04T10:25:54.887Z,-75
2023-03-04T10:29:43.215Z,-74
2023-03-04T10:32:10.997Z,-74
2023-03-04T10:37:12.935Z,-73
2023-03-04T10:39:40.772Z,-74
2023-03-04T10:42:08.760Z,-74
2023-03-04T10:44:38.901Z,-75
2023-03-04T10:47:06.649Z,-74
2023-03-04T10:49:34.509Z,-74
2023-03-04T10:52:02.599Z,-73
2023-03-04T10:54:30.308Z,-74
2023-03-04T10:56:58.103Z,-73
2023-03-04T10:59:25.832Z,-74
2023-03-04T11:01:53.630Z,-73
2023-03-04T11:04:22.309Z,-73
2023-03-04T11:06:50.190Z,-73
2023-03-04T11:09:17.969Z,-73
2023-03-04T11:11:46.128Z,-73
2023-03-04T11:14:14.034Z,-73
2023-03-04T11:16:41.912Z,-74
2023-03-04T11:19:09.802Z,-74
2023-03-04T11:21:40.004Z,-75
2023-03-04T11:24:13.338Z,-73
2023-03-04T11:26:50.024Z,-75
2023-03-04T11:29:17.783Z,-75
2023-03-04T11:31:45.549Z,-73
2023-03-04T11:34:13.770Z,-72
2023-03-04T11:36:41.517Z,-73
2023-03-04T11:39:09.414Z,-73
2023-03-04T11:41:37.175Z,-73
2023-03-04T11:44:04.960Z,-73
2023-03-04T11:46:33.186Z,-76
2023-03-04T11:49:02.084Z,-74
2023-03-04T11:51:29.883Z,-73
2023-03-04T11:53:57.619Z,-73
2023-03-04T11:56:25.414Z,-73
2023-03-04T11:58:53.276Z,-76
2023-03-04T12:01:21.104Z,-76
2023-03-04T12:03:49.177Z,-73
2023-03-04T12:06:17.224Z,-73
2023-03-04T12:08:45.083Z,-73
2023-03-04T12:11:12.854Z,-73
2023-03-04T12:13:40.599Z,-79
2023-03-04T12:16:08.326Z,-78
2023-03-04T12:18:36.032Z,-79
2023-03-04T12:21:03.751Z,-79
2023-03-04T12:23:31.639Z,-79
2023-03-04T12:25:59.357Z,-78
2023-03-04T12:28:27.721Z,-78
2023-03-04T12:30:55.630Z,-79
2023-03-04T12:33:23.424Z,-78
2023-03-04T12:35:51.242Z,-79
2023-03-04T12:38:19.365Z,-79
2023-03-04T12:40:47.101Z,-79
2023-03-04T12:43:15.909Z,-79
2023-03-04T12:45:43.735Z,-79
2023-03-04T12:48:11.606Z,-79
2023-03-04T12:50:39.277Z,-79
2023-03-04T12:53:06.992Z,-79
2023-03-04T12:55:34.946Z,-79
2023-03-04T12:58:02.737Z,-79
2023-03-04T13:00:30.773Z,-80
2023-03-04T13:02:58.633Z,-79
2023-03-04T13:05:26.479Z,-79
2023-03-04T13:07:55.016Z,-79
2023-03-04T13:10:25.616Z,-79
2023-03-04T13:12:53.532Z,-80
2023-03-04T13:15:21.623Z,-80
2023-03-04T13:17:50.313Z,-79
2023-03-04T13:20:18.053Z,-79
2023-03-04T13:22:45.858Z,-81
2023-03-04T13:25:14.131Z,-80
2023-03-04T13:27:41.862Z,-80
2023-03-04T13:30:09.626Z,-79
2023-03-04T13:32:37.626Z,-79
2023-03-04T13:35:05.458Z,-80
2023-03-04T13:37:33.166Z,-80
2023-03-04T13:40:00.956Z,-80
2023-03-04T13:42:28.705Z,-80
2023-03-04T13:44:56.751Z,-80
2023-03-04T13:47:24.656Z,-79
2023-03-04T13:49:52.724Z,-80
2023-03-04T13:52:20.598Z,-79
2023-03-04T13:54:48.503Z,-80
2023-03-04T13:57:18.438Z,-80
2023-03-04T13:59:46.466Z,-80
2023-03-04T14:02:15.879Z,-80
2023-03-04T14:04:43.701Z,-79
2023-03-04T14:07:11.485Z,-80
2023-03-04T14:09:39.276Z,-81
2023-03-04T14:12:07.001Z,-80
2023-03-04T14:14:37.514Z,-80
2023-03-04T14:17:05.348Z,-80
2023-03-04T14:19:33.484Z,-80
2023-03-04T14:22:01.331Z,-79
2023-03-04T14:24:30.851Z,-80
2023-03-04T14:26:58.631Z,-80
2023-03-04T14:29:26.483Z,-79
2023-03-04T14:31:54.381Z,-80
2023-03-04T14:34:22.200Z,-80
2023-03-04T14:36:50.111Z,-80
2023-03-04T14:39:17.985Z,-80
2023-03-04T14:41:45.725Z,-80
2023-03-04T14:44:13.677Z,-80
2023-03-04T14:46:41.464Z,-80
2023-03-04T14:49:09.306Z,-81
2023-03-04T14:51:37.051Z,-80
2023-03-04T14:54:04.966Z,-79
2023-03-04T14:56:32.718Z,-80
2023-03-04T14:59:00.450Z,-80
2023-03-04T15:01:28.253Z,-80
2023-03-04T15:03:56.287Z,-81
2023-03-04T15:06:24.213Z,-79
2023-03-04T15:08:53.210Z,-80
2023-03-04T15:11:21.856Z,-79
2023-03-04T15:13:49.848Z,-80
2023-03-04T15:16:17.800Z,-80
2023-03-04T15:18:45.663Z,-80
2023-03-04T15:21:13.460Z,-80
2023-03-04T15:23:41.246Z,-78
2023-03-04T15:26:08.984Z,-80
2023-03-04T15:28:36.726Z,-79
2023-03-04T15:31:04.615Z,-80
2023-03-04T15:33:32.618Z,-80
2023-03-04T15:36:00.487Z,-79
2023-03-04T15:38:28.351Z,-80
2023-03-04T15:40:56.547Z,-80
2023-03-04T15:43:24.320Z,-80
2023-03-04T15:45:52.103Z,-80
2023-03-04T15:48:20.084Z,-80
2023-03-04T15:50:47.835Z,-80
2023-03-04T15:53:15.812Z,-80
2023-03-04T15:55:43.583Z,-80
2023-03-04T15:58:11.475Z,-80
2023-03-04T16:00:39.222Z,-80
2023-03-04T16:03:06.992Z,-80
2023-03-04T16:05:34.975Z,-80
2023-03-04T16:08:02.720Z,-80
2023-03-04T16:10:30.872Z,-80
2023-03-04T16:12:58.687Z,-80
2023-03-04T16:15:26.519Z,-80
2023-03-04T16:17:54.324Z,-80
2023-03-04T16:20:22.393Z,-80
2023-03-04T16:22:50.176Z,-80
2023-03-04T16:25:18.014Z,-80
2023-03-04T16:27:45.814Z,-80
2023-03-04T16:30:13.613Z,-80
2023-03-04T16:32:41.600Z,-79
2023-03-04T16:35:09.372Z,-80
2023-03-04T16:37:37.189Z,-80
2023-03-04T16:40:05.068Z,-80
2023-03-04T16:42:32.845Z,-80
2023-03-04T16:45:01.057Z,-80
2023-03-04T16:47:28.977Z,-80
2023-03-04T16:49:57.695Z,-80
2023-03-04T16:52:25.576Z,-80
2023-03-04T16:54:53.379Z,-80
2023-03-04T16:57:21.188Z,-80
2023-03-04T16:59:48.989Z,-80
2023-03-04T17:02:16.716Z,-80
2023-03-04T17:04:44.690Z,-80
2023-03-04T17:07:12.503Z,-80
2023-03-04T17:09:40.295Z,-83
2023-03-04T17:12:08.019Z,-83
2023-03-04T17:14:42.700Z,-83
2023-03-04T17:17:11.739Z,-83
2023-03-04T17:19:42.081Z,-83
2023-03-04T17:22:09.813Z,-83
2023-03-04T17:24:40.007Z,-83
2023-03-04T17:27:10.172Z,-83
2023-03-04T17:29:45.788Z,-83
2023-03-04T17:32:17.300Z,-83
2023-03-04T17:34:49.185Z,-83
2023-03-04T17:37:26.634Z,-83
2023-03-04T17:40:00.177Z,-83
2023-03-04T18:20:26.318Z,-70
2023-03-04T18:22:54.137Z,-69
2023-03-04T18:25:21.995Z,-68
2023-03-04T18:27:49.787Z,-69
2023-03-04T18:30:17.811Z,-68
2023-03-04T18:32:51.817Z,-69
2023-03-04T18:35:20.262Z,-69
2023-03-04T18:37:48.101Z,-69
2023-03-04T18:40:15.854Z,-68
2023-03-04T18:42:44.287Z,-69
2023-03-04T18:45:12.070Z,-69
2023-03-04T18:47:39.865Z,-70
2023-03-04T18:50:07.638Z,-70
2023-03-04T18:52:36.000Z,-69
2023-03-04T18:55:03.734Z,-70
2023-03-04T18:57:31.692Z,-70
2023-03-04T18:59:59.997Z,-69
2023-03-04T19:02:27.969Z,-71
2023-03-04T19:04:55.699Z,-69
2023-03-04T19:07:23.852Z,-70
2023-03-04T19:09:51.648Z,-69
2023-03-04T19:12:19.388Z,-70
2023-03-04T19:14:47.262Z,-69
2023-03-04T19:17:15.306Z,-70
2023-03-04T19:19:43.108Z,-70
2023-03-04T19:22:10.874Z,-69
2023-03-04T19:24:38.666Z,-69
2023-03-04T19:27:06.509Z,-70
2023-03-04T19:29:34.464Z,-69
2023-03-04T19:32:02.343Z,-69
2023-03-04T19:34:30.152Z,-70
2023-03-04T19:36:57.888Z,-69
2023-03-04T19:39:25.735Z,-70
2023-03-04T19:41:53.490Z,-71
2023-03-04T19:44:21.315Z,-70
2023-03-04T19:46:49.112Z,-69
2023-03-04T19:49:16.930Z,-69
2023-03-04T19:51:44.756Z,-69
2023-03-04T19:54:12.515Z,-70
2023-03-04T19:56:40.270Z,-68
2023-03-04T19:59:08.047Z,-70
2023-03-04T20:01:35.785Z,-69
2023-03-04T20:04:03.639Z,-74
2023-03-04T20:06:31.388Z,-70
2023-03-04T20:08:59.206Z,-70
2023-03-04T20:11:26.997Z,-70
2023-03-04T20:13:55.112Z,-70
2023-03-04T20:16:22.868Z,-69
2023-03-04T20:18:50.784Z,-70
2023-03-04T20:21:18.977Z,-69
2023-03-04T20:23:46.772Z,-69
2023-03-04T20:26:14.643Z,-69
2023-03-04T20:28:42.428Z,-70
2023-03-04T20:31:10.432Z,-69
2023-03-04T20:33:38.195Z,-70
2023-03-04T20:36:05.961Z,-70
2023-03-04T20:38:33.754Z,-70
2023-03-04T20:41:02.024Z,-70
2023-03-04T20:43:31.229Z,-70
2023-03-04T20:45:59.039Z,-69
2023-03-04T20:48:27.122Z,-70
2023-03-04T20:50:54.882Z,-69
2023-03-04T20:53:22.645Z,-69
2023-03-04T20:55:50.437Z,-69
2023-03-04T20:58:18.227Z,-69
2023-03-04T21:00:48.489Z,-69
2023-03-04T21:03:16.421Z,-70
2023-03-04T21:05:44.178Z,-68
2023-03-04T21:08:13.463Z,-69
2023-03-04T21:10:41.208Z,-69
2023-03-04T21:13:11.287Z,-69
2023-03-04T21:15:39.103Z,-69
2023-03-04T21:18:06.914Z,-70
2023-03-04T21:20:34.752Z,-68
2023-03-04T21:23:02.466Z,-69
2023-03-04T21:25:30.372Z,-69
2023-03-04T21:27:58.177Z,-69
2023-03-04T21:30:25.967Z,-69
2023-03-04T21:32:54.141Z,-69
2023-03-04T21:35:22.275Z,-69
2023-03-04T21:37:51.427Z,-69
2023-03-04T21:40:19.280Z,-69
2023-03-04T21:42:47.134Z,-69
2023-03-04T21:45:15.059Z,-69
2023-03-04T21:47:42.812Z,-69
2023-03-04T21:50:10.752Z,-69
2023-03-04T21:52:38.519Z,-69
2023-03-04T21:55:06.438Z,-69
2023-03-04T21:57:34.355Z,-70
2023-03-04T22:00:02.476Z,-69
2023-03-04T22:02:31.113Z,-69
2023-03-04T22:04:59.015Z,-69
2023-03-04T22:07:26.798Z,-70
2023-03-04T22:09:55.638Z,-70
2023-03-04T22:12:23.484Z,-69
2023-03-04T22:14:51.308Z,-69
2023-03-04T22:17:19.099Z,-69
2023-03-04T22:19:46.946Z,-70
2023-03-04T22:22:17.981Z,-69
2023-03-04T22:24:45.843Z,-68
2023-03-04T22:27:13.617Z,-70
2023-03-04T22:29:41.578Z,-70
2023-03-04T22:32:09.355Z,-70
2023-03-04T22:34:37.363Z,-69
2023-03-04T22:37:05.081Z,-69
2023-03-04T22:39:32.820Z,-69
2023-03-04T22:42:00.715Z,-69
2023-03-04T22:44:28.490Z,-69
2023-03-04T22:46:56.222Z,-70
2023-03-04T22:49:24.104Z,-70
2023-03-04T22:51:51.795Z,-69
2023-03-04T22:54:19.795Z,-69
2023-03-04T22:56:47.556Z,-69
2023-03-04T22:59:15.503Z,-69
2023-03-04T23:01:43.298Z,-69
2023-03-04T23:04:11.298Z,-69
2023-03-04T23:06:39.065Z,-69
2023-03-04T23:09:06.938Z,-78
2023-03-04T23:11:35.398Z,-79
2023-03-04T23:14:06.470Z,-80
2023-03-04T23:16:37.194Z,-79
2023-03-04T23:19:05.056Z,-79
2023-03-04T23:21:34.007Z,-79
2023-03-04T23:24:02.387Z,-80
2023-03-04T23:26:30.570Z,-80
2023-03-04T23:29:01.320Z,-80
2023-03-04T23:31:29.092Z,-80
2023-03-04T23:33:57.577Z,-80
2023-03-04T23:36:25.447Z,-80
2023-03-04T23:38:53.261Z,-79
2023-03-04T23:41:21.292Z,-80
2023-03-04T23:43:49.053Z,-80
2023-03-04T23:46:16.812Z,-80
2023-03-04T23:48:46.344Z,-80
2023-03-04T23:51:14.251Z,-78
2023-03-04T23:53:41.952Z,-80
2023-03-04T23:56:09.692Z,-79
2023-03-04T23:58:37.689Z,-79
